Time;durP1;ratioP1;P1;durP2;ratioP2;P2;SDS_P1;SDS_P2;PMS_P1;PMS_P2;Temp;Humidity;BMP_temperature;BMP_pressure;BME280_temperature;BME280_humidity;BME280_pressure;Samples;Min_cycle;Max_cycle;Signal;HPM_P1;HPM_P2
2023/12/21 00:02:09;;;;;;;3.03;1.77;;;4.00;99.90;;;;;;5034307;28;19925;-87
2023/12/21 00:04:57;;;;;;;3.13;1.70;;;4.00;1.00;;;;;;5051534;28;20114;-87
2023/12/21 00:07:44;;;;;;;3.63;1.60;;;4.00;1.00;;;;;;5055536;28;20580;-86
2023/12/21 00:10:32;;;;;;;2.08;1.25;;;3.90;1.00;;;;;;5050592;28;20048;-87
2023/12/21 00:13:23;;;;;;;4.40;1.52;;;3.90;1.00;;;;;;5052519;28;20036;-87
2023/12/21 00:16:13;;;;;;;2.65;1.35;;;4.00;1.00;;;;;;5051896;28;20056;-81
2023/12/21 00:19:01;;;;;;;2.30;1.50;;;4.00;99.90;;;;;;5052269;28;20056;-80
2023/12/21 00:21:48;;;;;;;2.85;1.23;;;4.00;99.90;;;;;;5055052;28;20049;-87
2023/12/21 00:24:35;;;;;;;1.65;1.45;;;4.00;1.00;;;;;;5048649;28;20504;-87
2023/12/21 00:27:22;;;;;;;1.65;1.15;;;4.00;1.00;;;;;;5050051;28;20041;-80
2023/12/21 00:30:10;;;;;;;2.65;1.40;;;4.00;1.00;;;;;;5045973;28;20049;-86
2023/12/21 00:32:57;;;;;;;1.30;1.10;;;4.00;1.00;;;;;;5040566;28;20152;-87
2023/12/21 00:35:45;;;;;;;2.90;1.38;;;4.00;1.00;;;;;;5048879;28;20078;-87
2023/12/21 00:38:32;;;;;;;1.60;1.50;;;4.00;1.00;;;;;;5048878;28;20056;-83
2023/12/21 00:41:19;;;;;;;1.40;1.30;;;4.00;1.00;;;;;;5048200;28;20048;-89
2023/12/21 00:44:08;;;;;;;3.50;1.60;;;4.00;19.60;;;;;;5059632;28;20134;-86
2023/12/21 00:46:55;;;;;;;2.25;1.50;;;4.00;99.90;;;;;;5049549;28;20361;-87
2023/12/21 00:49:43;;;;;;;1.73;1.52;;;4.00;99.90;;;;;;5053209;28;20365;-87
2023/12/21 00:52:30;;;;;;;1.92;1.42;;;4.00;99.90;;;;;;5047750;28;20124;-85
2023/12/21 00:55:17;;;;;;;3.53;1.17;;;4.00;99.90;;;;;;5050846;28;20323;-86
2023/12/21 00:58:07;;;;;;;2.15;1.30;;;4.00;99.90;;;;;;5049661;28;20041;-87
2023/12/21 01:00:55;;;;;;;1.42;1.23;;;4.00;99.90;;;;;;5052355;28;20650;-88
2023/12/21 01:03:43;;;;;;;3.45;1.20;;;4.00;99.90;;;;;;5054743;28;20435;-82
2023/12/21 01:06:30;;;;;;;2.20;1.50;;;4.00;99.90;;;;;;5049728;28;20048;-87
2023/12/21 01:09:17;;;;;;;1.40;1.30;;;4.00;99.90;;;;;;5049359;28;20167;-87
2023/12/21 01:12:08;;;;;;;1.70;1.58;;;4.00;99.90;;;;;;5052802;28;20049;-88
2023/12/21 01:15:01;;;;;;;1.70;1.10;;;4.00;99.90;;;;;;5056822;28;20037;-84
2023/12/21 01:17:48;;;;;;;1.65;1.55;;;4.10;99.90;;;;;;5050360;28;20041;-87
2023/12/21 01:20:35;;;;;;;3.60;1.30;;;4.10;99.90;;;;;;5051303;28;20048;-85
2023/12/21 01:23:23;;;;;;;1.23;1.10;;;4.10;99.90;;;;;;5051126;28;20044;-87
2023/12/21 01:26:10;;;;;;;2.42;1.25;;;4.10;99.90;;;;;;5050167;28;20122;-86
2023/12/21 01:28:59;;;;;;;1.08;1.08;;;4.10;99.90;;;;;;5050258;28;20349;-86
2023/12/21 01:31:46;;;;;;;1.30;1.20;;;4.10;99.90;;;;;;5044476;28;20112;-86
2023/12/21 01:34:34;;;;;;;1.25;1.15;;;4.10;99.90;;;;;;5049550;28;20041;-88
2023/12/21 01:37:21;;;;;;;1.15;1.05;;;4.10;99.90;;;;;;5046216;28;20102;-86
2023/12/21 01:40:11;;;;;;;1.48;1.20;;;4.10;99.90;;;;;;5049765;28;20052;-84
2023/12/21 01:42:59;;;;;;;1.00;0.98;;;4.10;99.90;;;;;;5044409;28;20072;-87
2023/12/21 01:45:46;;;;;;;0.90;0.90;;;4.20;99.90;;;;;;5048372;28;20534;-86
2023/12/21 01:48:33;;;;;;;1.20;1.10;;;4.20;99.90;;;;;;5046298;28;20068;-81
2023/12/21 01:51:22;;;;;;;1.75;1.40;;;4.20;99.90;;;;;;5053087;28;20047;-89
2023/12/21 01:54:11;;;;;;;0.95;0.80;;;4.20;99.90;;;;;;5055987;28;20140;-86
2023/12/21 01:56:59;;;;;;;2.92;1.25;;;4.20;99.90;;;;;;5052258;28;20103;-84
2023/12/21 01:59:48;;;;;;;3.80;1.10;;;4.20;99.90;;;;;;5051000;28;20045;-85
2023/12/21 02:02:36;;;;;;;1.25;1.10;;;4.20;99.90;;;;;;5050441;28;20049;-86
2023/12/21 02:05:23;;;;;;;1.58;0.90;;;4.20;99.90;;;;;;5050159;28;20096;-87
2023/12/21 02:08:10;;;;;;;1.00;0.95;;;4.20;99.90;;;;;;5049511;28;20186;-88
2023/12/21 02:11:00;;;;;;;1.73;0.98;;;4.20;99.90;;;;;;5051643;28;20055;-84
2023/12/21 02:13:49;;;;;;;1.10;1.00;;;4.20;99.90;;;;;;5056489;28;20056;-87
2023/12/21 02:17:02;;;;;;;1.48;0.90;;;4.20;99.90;;;;;;5055118;28;20135;-87
2023/12/21 02:19:53;;;;;;;2.85;1.17;;;4.20;99.90;;;;;;5053639;28;20056;-87
2023/12/21 02:22:42;;;;;;;3.35;1.00;;;4.30;99.90;;;;;;5051811;28;20056;-87
2023/12/21 02:25:32;;;;;;;1.30;1.17;;;4.20;99.90;;;;;;5050452;28;20430;-88
2023/12/21 02:28:19;;;;;;;1.23;0.90;;;4.20;99.90;;;;;;5050216;28;20056;-87
2023/12/21 02:31:06;;;;;;;1.33;1.23;;;4.30;99.90;;;;;;5054069;28;20193;-80
2023/12/21 02:33:57;;;;;;;2.08;1.00;;;4.30;99.90;;;;;;5037136;28;20049;-83
2023/12/21 02:36:44;;;;;;;1.20;1.08;;;4.30;99.90;;;;;;5041185;28;20170;-83
2023/12/21 02:39:32;;;;;;;1.00;1.00;;;4.30;99.90;;;;;;5056859;28;20041;-87
2023/12/21 02:42:19;;;;;;;0.90;0.90;;;4.30;1.00;;;;;;5055216;28;20045;-86
2023/12/21 02:45:07;;;;;;;1.00;1.00;;;4.30;99.90;;;;;;5043755;28;20079;-86
2023/12/21 02:47:54;;;;;;;1.15;0.90;;;4.30;99.90;;;;;;5054179;28;20044;-87
2023/12/21 02:50:41;;;;;;;1.13;0.85;;;4.40;99.90;;;;;;5050996;28;20616;-85
2023/12/21 02:53:28;;;;;;;1.52;0.95;;;4.40;99.90;;;;;;5058552;28;20064;-87
2023/12/21 02:56:18;;;;;;;0.80;0.80;;;4.40;99.90;;;;;;5056055;28;20049;-87
2023/12/21 02:59:05;;;;;;;1.00;1.00;;;4.40;99.90;;;;;;5052761;28;20060;-89
2023/12/21 03:01:52;;;;;;;0.90;0.90;;;4.40;1.00;;;;;;5051754;28;20064;-88
2023/12/21 03:04:39;;;;;;;0.80;0.80;;;4.40;1.00;;;;;;5056354;28;20166;-84
2023/12/21 03:07:26;;;;;;;0.88;0.88;;;4.50;1.00;;;;;;5052531;28;20190;-90
2023/12/21 03:10:15;;;;;;;0.80;0.80;;;4.50;1.00;;;;;;5055721;28;20372;-81
2023/12/21 03:13:02;;;;;;;1.65;0.90;;;4.50;1.00;;;;;;5053485;28;20037;-81
2023/12/21 03:15:50;;;;;;;1.10;1.00;;;4.50;1.00;;;;;;5052308;28;20140;-88
2023/12/21 03:18:39;;;;;;;0.90;0.90;;;4.50;1.00;;;;;;5047072;28;20132;-88
2023/12/21 03:21:26;;;;;;;1.13;0.93;;;4.50;1.00;;;;;;5050049;28;20128;-83
2023/12/21 03:24:14;;;;;;;1.52;0.90;;;4.50;1.00;;;;;;5053071;28;20063;-90
2023/12/21 03:27:02;;;;;;;0.80;0.80;;;4.50;1.00;;;;;;5039232;28;20045;-85
2023/12/21 03:29:49;;;;;;;0.90;0.90;;;4.50;1.00;;;;;;5051163;28;20045;-87
2023/12/21 03:32:36;;;;;;;0.95;0.80;;;4.60;1.00;;;;;;5049707;28;20033;-87
2023/12/21 03:35:26;;;;;;;2.10;0.88;;;4.60;1.00;;;;;;5058602;28;20033;-87
2023/12/21 03:38:15;;;;;;;0.85;0.73;;;4.60;1.00;;;;;;5051433;28;20104;-88
2023/12/21 03:41:03;;;;;;;1.05;1.00;;;4.60;1.00;;;;;;5051674;28;20045;-87
2023/12/21 03:43:50;;;;;;;0.93;0.93;;;4.60;1.00;;;;;;5049441;28;20041;-88
2023/12/21 03:46:37;;;;;;;0.80;0.80;;;4.60;1.00;;;;;;5051838;28;20123;-87
2023/12/21 03:49:28;;;;;;;0.90;0.82;;;4.60;1.00;;;;;;5038191;28;20138;-86
2023/12/21 03:52:16;;;;;;;1.75;0.98;;;4.60;1.00;;;;;;5047951;28;20059;-89
2023/12/21 03:55:04;;;;;;;0.82;0.70;;;4.60;1.00;;;;;;5055579;28;20036;-87
2023/12/21 03:57:51;;;;;;;0.70;0.70;;;4.70;1.00;;;;;;5033611;28;20068;-86
2023/12/21 04:00:41;;;;;;;0.70;0.70;;;4.70;1.00;;;;;;5052895;28;20052;-84
2023/12/21 04:03:30;;;;;;;0.80;0.80;;;4.80;1.00;;;;;;5053191;28;20433;-89
2023/12/21 04:06:18;;;;;;;0.77;0.70;;;4.70;1.00;;;;;;5053635;28;20064;-87
2023/12/21 04:09:05;;;;;;;1.13;0.82;;;4.70;1.00;;;;;;5046479;28;20056;-86
2023/12/21 04:11:53;;;;;;;0.90;0.80;;;4.70;32.80;;;;;;5045741;28;20368;-86
2023/12/21 04:14:40;;;;;;;0.85;0.85;;;4.70;62.50;;;;;;5049365;28;20383;-86
2023/12/21 04:17:27;;;;;;;1.00;0.85;;;4.70;97.40;;;;;;5050080;28;20040;-88
2023/12/21 04:20:14;;;;;;;1.17;0.93;;;4.60;99.90;;;;;;5048120;28;20111;-87
2023/12/21 04:23:04;;;;;;;0.75;0.75;;;4.50;99.90;;;;;;5049070;28;20045;-88
2023/12/21 04:25:51;;;;;;;1.35;1.17;;;4.50;99.90;;;;;;5051785;28;20066;-88
2023/12/21 04:28:40;;;;;;;0.77;0.75;;;4.50;99.90;;;;;;5049704;28;20049;-89
2023/12/21 04:31:28;;;;;;;1.70;0.80;;;4.50;99.90;;;;;;5046895;28;20361;-84
2023/12/21 04:34:15;;;;;;;1.10;1.00;;;4.50;99.90;;;;;;5050576;28;20056;-86
2023/12/21 04:37:03;;;;;;;0.90;0.90;;;4.50;99.90;;;;;;5051737;28;20057;-86
2023/12/21 04:39:50;;;;;;;1.45;1.02;;;4.50;99.90;;;;;;5050950;28;20055;-80
2023/12/21 04:42:37;;;;;;;0.80;0.80;;;4.50;99.90;;;;;;5051965;28;20068;-86
2023/12/21 04:45:24;;;;;;;0.80;0.80;;;4.50;99.90;;;;;;5053217;28;20206;-88
2023/12/21 04:48:11;;;;;;;0.82;0.82;;;4.50;99.90;;;;;;5050492;28;20044;-87
2023/12/21 04:51:00;;;;;;;0.82;0.82;;;4.50;99.90;;;;;;5036200;28;20198;-85
2023/12/21 04:53:47;;;;;;;0.90;0.90;;;4.50;99.90;;;;;;5050507;28;20041;-87
2023/12/21 04:56:40;;;;;;;0.93;0.90;;;4.50;99.90;;;;;;5051461;28;20045;-85
2023/12/21 04:59:28;;;;;;;1.00;0.90;;;4.60;99.90;;;;;;5046910;28;20072;-87
2023/12/21 05:02:15;;;;;;;1.77;0.85;;;4.60;99.90;;;;;;5047208;28;20041;-88
2023/12/21 05:05:06;;;;;;;0.80;0.80;;;4.50;99.90;;;;;;5049851;28;20044;-83
2023/12/21 05:07:53;;;;;;;1.42;1.00;;;4.60;99.90;;;;;;5052891;28;20044;-87
2023/12/21 05:10:41;;;;;;;0.80;0.80;;;4.60;99.90;;;;;;5046026;28;20037;-88
2023/12/21 05:13:28;;;;;;;0.70;0.70;;;4.60;99.90;;;;;;5048769;28;20082;-88
2023/12/21 05:16:15;;;;;;;2.28;0.73;;;4.70;99.90;;;;;;5051562;28;20071;-87
2023/12/21 05:19:03;;;;;;;2.20;1.20;;;4.70;99.90;;;;;;5050001;28;20045;-87
2023/12/21 05:21:50;;;;;;;1.00;1.00;;;4.70;99.90;;;;;;5050342;28;20056;-88
2023/12/21 05:24:40;;;;;;;1.85;0.90;;;4.70;99.90;;;;;;5052747;28;20049;-82
2023/12/21 05:27:28;;;;;;;2.15;1.02;;;4.80;99.90;;;;;;5056199;28;20429;-87
2023/12/21 05:30:18;;;;;;;1.00;0.90;;;4.70;99.90;;;;;;5053905;28;20076;-89
2023/12/21 05:33:07;;;;;;;0.80;0.80;;;4.70;99.90;;;;;;5047656;28;20114;-87
2023/12/21 05:35:55;;;;;;;1.25;0.88;;;4.70;99.90;;;;;;5053038;28;20056;-87
2023/12/21 05:38:42;;;;;;;1.85;0.90;;;4.70;99.90;;;;;;5048939;28;20433;-87
2023/12/21 05:41:29;;;;;;;0.80;0.80;;;4.70;99.90;;;;;;5047292;28;20045;-86
2023/12/21 05:44:16;;;;;;;0.80;0.80;;;4.70;99.90;;;;;;5056920;28;20049;-84
2023/12/21 05:47:04;;;;;;;0.70;0.70;;;4.70;99.90;;;;;;5055679;28;20045;-84
2023/12/21 05:49:53;;;;;;;0.88;0.88;;;4.70;99.90;;;;;;5054123;28;20109;-86
2023/12/21 05:52:40;;;;;;;0.80;0.80;;;4.70;99.90;;;;;;5047795;28;20173;-83
2023/12/21 05:55:29;;;;;;;0.70;0.70;;;4.60;99.90;;;;;;5052995;28;20376;-85
2023/12/21 06:00:52;;;;;;;2.67;1.40;;;4.60;99.90;;;;;;5896141;22;20057;-79
2023/12/21 06:03:42;;;;;;;1.27;1.17;;;4.60;99.90;;;;;;5077027;28;20355;-79
2023/12/21 06:06:30;;;;;;;1.60;1.50;;;4.60;99.90;;;;;;5067038;28;20135;-83
2023/12/21 06:09:22;;;;;;;1.70;1.52;;;4.70;99.90;;;;;;5062423;28;20155;-84
2023/12/21 06:12:09;;;;;;;1.37;1.20;;;4.70;99.90;;;;;;5064324;28;20110;-81
2023/12/21 06:14:59;;;;;;;1.50;1.40;;;4.70;99.90;;;;;;5069214;28;20147;-83
2023/12/21 06:17:46;;;;;;;2.60;1.90;;;4.60;99.90;;;;;;5070224;28;20128;-84
2023/12/21 06:20:35;;;;;;;1.30;1.20;;;4.60;99.90;;;;;;5068909;28;20037;-84
2023/12/21 06:23:22;;;;;;;1.10;1.10;;;4.70;99.90;;;;;;5071899;28;20050;-82
2023/12/21 06:26:09;;;;;;;2.05;0.90;;;4.70;99.90;;;;;;5066457;28;20047;-83
2023/12/21 06:28:56;;;;;;;1.00;0.90;;;4.80;99.90;;;;;;5083080;28;20147;-84
2023/12/21 06:31:43;;;;;;;1.13;1.00;;;4.80;99.90;;;;;;5070060;28;20037;-83
2023/12/21 06:34:35;;;;;;;1.10;1.10;;;4.80;99.90;;;;;;5069071;28;20361;-81
2023/12/21 06:37:22;;;;;;;1.55;1.05;;;4.80;99.90;;;;;;5058025;28;20051;-83
2023/12/21 06:40:10;;;;;;;1.40;1.05;;;4.80;99.90;;;;;;5066938;28;20045;-84
2023/12/21 06:42:57;;;;;;;3.90;1.00;;;4.80;99.90;;;;;;5073100;28;20078;-86
2023/12/21 06:45:47;;;;;;;1.20;0.80;;;4.80;99.90;;;;;;5072957;28;20090;-87
2023/12/21 06:48:34;;;;;;;0.80;0.80;;;4.80;99.90;;;;;;5074182;28;20237;-80
2023/12/21 06:51:21;;;;;;;1.10;1.00;;;4.80;99.90;;;;;;5073755;28;20044;-85
2023/12/21 06:54:09;;;;;;;0.90;0.75;;;4.80;99.90;;;;;;5071771;28;20056;-86
2023/12/21 06:56:56;;;;;;;1.10;1.00;;;4.90;99.90;;;;;;5074012;28;20122;-81
2023/12/21 06:59:43;;;;;;;1.05;0.95;;;4.90;99.90;;;;;;5068032;28;20044;-87
2023/12/21 07:02:32;;;;;;;0.88;0.88;;;4.90;99.90;;;;;;5067510;28;20099;-87
2023/12/21 07:05:20;;;;;;;1.15;0.90;;;5.00;99.90;;;;;;5069733;28;20052;-87
2023/12/21 07:08:10;;;;;;;3.03;1.20;;;5.00;99.90;;;;;;5040179;28;20479;-86
2023/12/21 07:10:57;;;;;;;1.20;1.10;;;5.00;99.90;;;;;;5047703;28;20045;-82
2023/12/21 07:13:45;;;;;;;3.25;1.20;;;5.00;99.90;;;;;;5049983;28;20108;-88
2023/12/21 07:16:32;;;;;;;1.20;1.05;;;5.10;99.90;;;;;;5051978;28;20044;-84
2023/12/21 07:19:19;;;;;;;1.17;1.02;;;5.10;99.90;;;;;;5040983;28;20137;-86
2023/12/21 07:22:07;;;;;;;1.48;1.25;;;5.10;99.90;;;;;;5051826;28;20532;-86
2023/12/21 07:24:54;;;;;;;0.70;0.70;;;5.10;99.90;;;;;;5049076;28;20045;-82
2023/12/21 07:27:41;;;;;;;0.90;0.90;;;5.20;99.90;;;;;;5049317;28;20460;-86
2023/12/21 07:30:31;;;;;;;0.73;0.73;;;5.20;99.90;;;;;;5052429;28;20044;-86
2023/12/21 07:33:18;;;;;;;1.10;0.98;;;5.20;99.90;;;;;;5049213;28;20483;-81
2023/12/21 07:36:07;;;;;;;0.95;0.95;;;5.30;99.90;;;;;;5054389;28;20495;-87
2023/12/21 07:38:55;;;;;;;1.10;1.00;;;5.20;99.90;;;;;;5037441;28;20042;-86
2023/12/21 07:41:42;;;;;;;3.17;0.80;;;5.20;99.90;;;;;;5043538;28;20369;-87
2023/12/21 07:44:29;;;;;;;2.25;1.00;;;5.30;99.90;;;;;;5049536;28;20045;-85
2023/12/21 07:47:16;;;;;;;0.80;0.80;;;5.30;99.90;;;;;;5051871;28;20437;-88
2023/12/21 07:50:04;;;;;;;0.82;0.82;;;5.30;99.90;;;;;;5049888;28;20453;-85
2023/12/21 07:52:56;;;;;;;1.52;1.00;;;5.30;99.90;;;;;;5051960;28;20045;-88
2023/12/21 07:55:43;;;;;;;2.45;1.10;;;5.30;99.90;;;;;;5036319;28;20053;-86
2023/12/21 07:58:31;;;;;;;0.95;0.80;;;5.30;99.90;;;;;;5036388;28;20556;-82
2023/12/21 08:01:18;;;;;;;1.33;0.80;;;5.30;99.90;;;;;;5046082;28;20191;-87
2023/12/21 08:04:07;;;;;;;1.92;0.95;;;5.30;99.90;;;;;;5048380;28;20053;-87
2023/12/21 08:06:57;;;;;;;1.45;1.00;;;5.30;99.90;;;;;;5065958;28;20063;-83
2023/12/21 08:09:45;;;;;;;1.05;0.98;;;5.30;99.90;;;;;;5056581;28;20048;-81
2023/12/21 08:12:32;;;;;;;1.25;0.82;;;5.30;99.90;;;;;;5045481;28;20370;-86
2023/12/21 08:15:19;;;;;;;1.13;0.98;;;5.30;99.90;;;;;;5054737;28;20055;-87
2023/12/21 08:18:07;;;;;;;0.90;0.90;;;5.30;99.90;;;;;;5051283;28;20056;-87
2023/12/21 08:20:56;;;;;;;1.38;0.93;;;5.40;99.90;;;;;;5049420;28;20053;-85
2023/12/21 08:23:44;;;;;;;1.90;1.00;;;5.40;99.90;;;;;;5049652;28;20095;-85
2023/12/21 08:26:32;;;;;;;0.88;0.80;;;5.40;99.90;;;;;;5050261;28;20458;-86
2023/12/21 08:29:19;;;;;;;0.70;0.70;;;5.40;99.90;;;;;;5049990;28;20041;-86
2023/12/21 08:32:06;;;;;;;7.00;4.60;;;5.40;99.90;;;;;;5048499;28;20052;-85
2023/12/21 08:34:56;;;;;;;2.03;1.27;;;5.40;99.90;;;;;;5056055;28;20243;-86
2023/12/21 08:37:44;;;;;;;1.08;1.00;;;5.40;99.90;;;;;;5049452;28;20049;-87
2023/12/21 08:40:31;;;;;;;0.93;0.93;;;5.40;99.90;;;;;;5040173;28;20433;-86
2023/12/21 08:43:18;;;;;;;0.98;0.98;;;5.40;99.90;;;;;;5050188;28;20068;-87
2023/12/21 08:46:06;;;;;;;1.48;1.38;;;5.40;99.90;;;;;;5045808;28;20076;-86
2023/12/21 08:48:55;;;;;;;1.42;0.82;;;5.40;99.90;;;;;;5056762;28;20056;-82
2023/12/21 08:51:42;;;;;;;0.82;0.82;;;5.40;99.90;;;;;;5053806;28;20168;-88
2023/12/21 08:54:33;;;;;;;1.40;1.30;;;5.40;99.90;;;;;;5050029;28;20167;-86
2023/12/21 08:57:22;;;;;;;1.00;0.90;;;5.40;99.90;;;;;;5049147;28;20032;-83
2023/12/21 09:00:13;;;;;;;1.27;1.17;;;5.50;99.90;;;;;;5051744;28;20063;-84
2023/12/21 09:03:01;;;;;;;0.77;0.77;;;5.50;99.90;;;;;;5048982;28;20052;-86
2023/12/21 09:05:51;;;;;;;2.72;0.80;;;5.60;99.90;;;;;;5050177;28;20044;-84
2023/12/21 09:08:41;;;;;;;1.55;0.80;;;5.60;99.90;;;;;;5048293;28;20212;-84
2023/12/21 09:11:30;;;;;;;1.40;0.65;;;5.60;99.90;;;;;;5047384;28;20445;-86
2023/12/21 09:14:18;;;;;;;0.70;0.70;;;5.60;99.90;;;;;;5045485;28;20067;-87
2023/12/21 09:17:05;;;;;;;1.30;0.70;;;5.60;99.90;;;;;;5049645;28;20148;-83
2023/12/21 09:19:52;;;;;;;1.33;0.93;;;5.60;99.90;;;;;;5047930;28;20045;-85
2023/12/21 09:22:42;;;;;;;4.55;2.38;;;5.70;99.90;;;;;;5040893;28;20053;-86
2023/12/21 09:25:32;;;;;;;1.50;1.38;;;5.70;99.90;;;;;;5049908;28;20472;-85
2023/12/21 09:28:19;;;;;;;3.78;1.98;;;5.70;99.90;;;;;;5047531;28;20080;-84
2023/12/21 09:31:07;;;;;;;1.42;1.33;;;5.70;99.90;;;;;;5041888;28;20088;-85
2023/12/21 09:33:55;;;;;;;1.02;1.00;;;5.70;99.90;;;;;;5044692;28;20063;-81
2023/12/21 09:36:42;;;;;;;0.90;0.90;;;5.80;99.90;;;;;;5046251;28;20052;-86
2023/12/21 09:39:30;;;;;;;1.02;0.80;;;5.80;99.90;;;;;;5049711;28;20056;-88
2023/12/21 09:42:19;;;;;;;1.10;0.80;;;5.80;99.90;;;;;;5041548;28;20041;-87
2023/12/21 09:45:06;;;;;;;0.82;0.82;;;5.90;99.90;;;;;;5049397;28;20488;-82
2023/12/21 09:47:54;;;;;;;0.77;0.70;;;6.00;99.90;;;;;;5050093;28;20082;-86
2023/12/21 09:50:44;;;;;;;1.88;0.80;;;6.00;99.90;;;;;;5052084;28;20041;-86
2023/12/21 09:53:39;;;;;;;1.05;0.80;;;6.10;99.90;;;;;;5041820;28;20114;-84
2023/12/21 09:56:30;;;;;;;1.80;0.80;;;6.10;99.90;;;;;;5044347;28;20060;-85
2023/12/21 09:59:20;;;;;;;1.38;0.70;;;6.10;99.90;;;;;;5041003;28;20094;-85
2023/12/21 10:02:14;;;;;;;1.20;0.80;;;6.10;99.90;;;;;;5050320;28;20483;-85
2023/12/21 10:05:03;;;;;;;0.70;0.70;;;6.10;99.90;;;;;;5044915;28;20145;-87
2023/12/21 10:07:51;;;;;;;0.80;0.80;;;6.10;99.90;;;;;;5044817;28;20145;-88
2023/12/21 10:10:38;;;;;;;1.58;0.80;;;6.10;99.90;;;;;;5046708;28;20114;-90
2023/12/21 10:13:28;;;;;;;3.47;1.10;;;6.10;99.90;;;;;;5050275;28;20093;-87
2023/12/21 10:16:18;;;;;;;1.02;0.98;;;6.10;99.90;;;;;;5048482;28;20358;-88
2023/12/21 10:19:10;;;;;;;0.73;0.70;;;6.10;99.90;;;;;;5049581;28;20610;-90
2023/12/21 10:21:58;;;;;;;;;;;6.10;99.90;;;;;;5053194;28;20044;-87
2023/12/21 10:24:50;;;;;;;1.05;1.00;;;6.10;99.90;;;;;;5051787;28;19996;-82
2023/12/21 10:27:40;;;;;;;0.57;0.57;;;6.10;99.90;;;;;;5045493;28;20674;-81
2023/12/21 10:30:27;;;;;;;0.90;0.90;;;6.10;99.90;;;;;;5050952;28;20060;-84
2023/12/21 10:33:16;;;;;;;0.80;0.80;;;6.00;99.90;;;;;;5055702;28;20342;-86
2023/12/21 10:36:07;;;;;;;1.02;0.75;;;6.00;99.90;;;;;;5053247;28;20054;-87
2023/12/21 10:38:57;;;;;;;3.08;0.80;;;6.00;99.90;;;;;;5046773;28;20088;-86
2023/12/21 10:41:45;;;;;;;1.75;0.93;;;6.00;99.90;;;;;;5053956;28;20481;-86
2023/12/21 10:44:32;;;;;;;2.55;0.80;;;6.00;99.90;;;;;;5050415;28;20049;-87
2023/12/21 10:47:20;;;;;;;0.77;0.60;;;5.90;99.90;;;;;;5054685;28;20124;-86
2023/12/21 10:50:09;;;;;;;0.73;0.73;;;6.00;99.90;;;;;;5053285;28;20047;-85
2023/12/21 10:52:59;;;;;;;0.68;0.68;;;6.00;99.90;;;;;;5056114;28;20037;-85
2023/12/21 10:55:48;;;;;;;0.80;0.70;;;6.00;99.90;;;;;;5058333;28;20045;-85
2023/12/21 10:58:37;;;;;;;0.77;0.77;;;6.00;99.90;;;;;;5057300;28;20055;-86
2023/12/21 11:01:29;;;;;;;0.60;0.60;;;6.00;99.90;;;;;;5051861;28;20056;-87
2023/12/21 11:04:20;;;;;;;1.48;1.00;;;6.00;99.90;;;;;;5052193;28;20542;-84
2023/12/21 11:07:09;;;;;;;1.85;0.70;;;6.10;99.90;;;;;;5048533;28;20139;-78
2023/12/21 11:10:00;;;;;;;0.65;0.65;;;6.10;99.90;;;;;;5051867;28;20041;-81
2023/12/21 11:12:50;;;;;;;1.00;0.80;;;6.10;99.90;;;;;;5049967;28;20060;-86
2023/12/21 11:15:41;;;;;;;0.60;0.60;;;6.10;99.90;;;;;;5046490;28;20656;-89
2023/12/21 11:18:29;;;;;;;0.80;0.80;;;6.20;99.90;;;;;;5049709;28;20061;-82
2023/12/21 11:21:21;;;;;;;0.70;0.70;;;6.20;99.90;;;;;;5049882;28;20045;-88
2023/12/21 11:24:22;;;;;;;0.80;0.80;;;6.20;99.90;;;;;;5051688;28;20076;-87
2023/12/21 11:27:09;;;;;;;1.02;0.88;;;6.20;99.90;;;;;;5052885;28;20353;-87
2023/12/21 11:30:10;;;;;;;0.80;0.80;;;6.20;99.90;;;;;;5049942;28;20037;-87
2023/12/21 11:33:09;;;;;;;1.02;0.90;;;6.20;99.90;;;;;;5048972;28;20465;-85
2023/12/21 11:36:02;;;;;;;1.00;0.90;;;6.20;99.90;;;;;;5050154;28;20057;-86
2023/12/21 11:38:52;;;;;;;0.70;0.70;;;6.30;99.90;;;;;;5049144;28;20048;-85
2023/12/21 11:41:50;;;;;;;1.63;1.00;;;6.30;99.90;;;;;;5051979;28;20045;-84
2023/12/21 11:44:38;;;;;;;0.80;0.80;;;6.30;99.90;;;;;;5054800;28;20101;-87
2023/12/21 11:47:25;;;;;;;0.63;0.63;;;6.30;99.90;;;;;;5046508;28;20045;-86
2023/12/21 11:50:17;;;;;;;0.95;0.85;;;6.30;99.90;;;;;;5051957;28;20048;-85
2023/12/21 11:53:12;;;;;;;1.00;0.90;;;6.30;99.90;;;;;;5050504;28;20045;-86
2023/12/21 11:56:12;;;;;;;0.70;0.70;;;6.30;99.90;;;;;;5053611;28;20053;-83
2023/12/21 11:59:00;;;;;;;0.70;0.70;;;6.40;99.90;;;;;;5056649;28;20037;-88
2023/12/21 12:01:48;;;;;;;0.60;0.60;;;6.30;99.90;;;;;;5050756;28;20503;-85
2023/12/21 12:04:35;;;;;;;0.80;0.80;;;6.30;99.90;;;;;;5045838;28;20048;-90
2023/12/21 12:07:24;;;;;;;0.60;0.60;;;6.40;99.90;;;;;;5048822;28;20057;-88
2023/12/21 12:10:16;;;;;;;0.80;0.80;;;6.40;99.90;;;;;;5043308;28;20381;-81
2023/12/21 12:13:03;;;;;;;1.17;0.95;;;6.40;99.90;;;;;;5050376;28;20056;-83
2023/12/21 12:15:52;;;;;;;1.08;0.90;;;6.40;99.90;;;;;;5049023;28;20075;-86
2023/12/21 12:18:40;;;;;;;1.75;0.70;;;6.50;99.90;;;;;;5049743;28;20052;-86
2023/12/21 12:21:28;;;;;;;0.75;0.75;;;6.50;99.90;;;;;;5048536;28;20148;-80
2023/12/21 12:24:17;;;;;;;0.88;0.88;;;6.50;99.90;;;;;;5047195;28;20263;-87
2023/12/21 12:27:05;;;;;;;0.80;0.80;;;6.60;99.90;;;;;;5049622;28;20119;-85
2023/12/21 12:29:54;;;;;;;3.60;1.00;;;6.70;99.90;;;;;;5050150;28;20045;-86
2023/12/21 12:32:42;;;;;;;0.80;0.80;;;6.70;99.90;;;;;;5045304;28;20182;-85
2023/12/21 12:35:36;;;;;;;0.90;0.90;;;6.80;99.90;;;;;;5050254;28;20134;-88
2023/12/21 12:38:27;;;;;;;0.75;0.75;;;6.80;99.90;;;;;;5052403;28;20045;-87
2023/12/21 12:41:22;;;;;;;0.80;0.80;;;6.80;99.90;;;;;;5048024;28;20046;-85
2023/12/21 12:44:15;;;;;;;0.75;0.68;;;6.90;99.90;;;;;;5048533;28;20047;-88
2023/12/21 12:47:05;;;;;;;1.15;0.70;;;7.00;99.90;;;;;;5046944;28;20041;-87
2023/12/21 12:49:53;;;;;;;0.85;0.80;;;7.00;99.90;;;;;;5047239;28;20469;-87
2023/12/21 12:52:41;;;;;;;0.85;0.85;;;7.00;99.90;;;;;;5051345;28;20049;-85
2023/12/21 12:55:28;;;;;;;0.70;0.70;;;6.90;99.90;;;;;;5047029;28;20106;-87
2023/12/21 12:58:15;;;;;;;0.70;0.70;;;6.90;99.90;;;;;;5044743;28;20052;-86
2023/12/21 13:01:03;;;;;;;0.77;0.75;;;6.90;99.90;;;;;;5049022;28;20047;-80
2023/12/21 13:03:50;;;;;;;1.45;0.75;;;6.90;99.90;;;;;;5045630;28;20441;-84
2023/12/21 13:06:40;;;;;;;0.63;0.63;;;6.90;99.90;;;;;;5047297;28;20123;-84
2023/12/21 13:09:34;;;;;;;1.10;1.00;;;6.90;99.90;;;;;;5049038;28;20036;-77
2023/12/21 13:12:24;;;;;;;0.60;0.60;;;7.00;99.90;;;;;;5048376;28;20182;-79
2023/12/21 13:15:15;;;;;;;0.85;0.85;;;7.00;99.90;;;;;;5049530;28;20041;-86
2023/12/21 13:18:03;;;;;;;0.65;0.65;;;7.00;99.90;;;;;;5049651;28;20041;-88
2023/12/21 13:20:50;;;;;;;0.70;0.70;;;7.00;99.90;;;;;;5045981;28;20364;-83
2023/12/21 13:23:38;;;;;;;0.75;0.75;;;7.10;99.90;;;;;;5052102;28;20102;-86
2023/12/21 13:26:25;;;;;;;0.80;0.80;;;7.00;99.90;;;;;;5044085;28;20100;-85
2023/12/21 13:29:12;;;;;;;0.57;0.57;;;7.00;99.90;;;;;;5047899;28;20049;-84
2023/12/21 13:32:01;;;;;;;1.23;1.10;;;7.00;99.90;;;;;;5049913;28;20052;-83
2023/12/21 13:34:49;;;;;;;2.88;1.42;;;7.00;99.90;;;;;;5042987;28;20352;-83
2023/12/21 13:37:37;;;;;;;0.60;0.60;;;7.10;99.90;;;;;;5048883;28;20476;-86
2023/12/21 13:40:27;;;;;;;0.60;0.60;;;7.20;99.90;;;;;;5047757;28;20527;-85
2023/12/21 13:43:18;;;;;;;0.70;0.70;;;7.10;99.90;;;;;;5046392;28;20095;-84
2023/12/21 13:46:06;;;;;;;0.80;0.80;;;7.10;99.90;;;;;;5040840;28;20045;-87
2023/12/21 13:48:54;;;;;;;0.70;0.70;;;7.10;99.90;;;;;;5049902;28;20041;-79
2023/12/21 13:51:41;;;;;;;0.60;0.60;;;7.20;99.90;;;;;;5045395;28;20389;-87
2023/12/21 13:54:28;;;;;;;2.95;0.80;;;7.10;99.90;;;;;;5049466;28;20392;-85
2023/12/21 13:57:16;;;;;;;0.60;0.60;;;7.10;99.90;;;;;;5046298;28;20106;-85
2023/12/21 14:00:07;;;;;;;1.13;0.90;;;7.10;99.90;;;;;;5044487;28;20517;-85
2023/12/21 14:02:55;;;;;;;1.30;0.82;;;7.00;99.90;;;;;;5052812;28;20144;-86
2023/12/21 14:05:52;;;;;;;0.50;0.50;;;7.00;99.90;;;;;;5053669;28;20153;-86
2023/12/21 14:08:39;;;;;;;0.55;0.55;;;6.90;99.90;;;;;;5051569;28;20063;-86
2023/12/21 14:11:27;;;;;;;0.65;0.60;;;7.00;99.90;;;;;;5052683;28;20048;-81
2023/12/21 14:14:14;;;;;;;0.50;0.50;;;6.90;99.90;;;;;;5051601;28;20120;-85
2023/12/21 14:17:03;;;;;;;0.60;0.60;;;6.90;99.90;;;;;;5053691;28;20174;-87
2023/12/21 14:39:44;;;;;;;1.02;0.90;;;6.90;99.90;;;;;;5040240;28;20124;-83
2023/12/21 16:10:25;;;;;;;1.50;1.00;;;6.90;99.90;;;;;;5034391;28;20488;-85
2023/12/21 16:13:37;;;;;;;1.85;1.50;;;6.90;99.90;;;;;;4963487;28;20040;-84
2023/12/21 16:16:30;;;;;;;1.23;1.10;;;6.90;99.90;;;;;;4965790;28;20387;-84
2023/12/21 16:19:26;;;;;;;1.67;1.45;;;6.90;99.90;;;;;;4964511;28;20066;-84
2023/12/21 16:22:14;;;;;;;1.00;1.00;;;6.90;99.90;;;;;;4958044;28;20495;-81
2023/12/21 16:25:06;;;;;;;1.50;1.40;;;6.90;99.90;;;;;;4935323;28;20087;-84
2023/12/21 16:27:53;;;;;;;1.48;0.95;;;7.00;99.90;;;;;;4962247;28;20142;-83
2023/12/21 16:30:42;;;;;;;3.08;1.35;;;7.00;99.90;;;;;;4943331;29;20126;-84
2023/12/21 16:33:38;;;;;;;1.40;1.30;;;7.00;99.90;;;;;;4941754;29;20149;-85
2023/12/21 16:36:26;;;;;;;2.55;0.90;;;7.10;99.90;;;;;;4940820;28;20043;-82
2023/12/21 16:39:20;;;;;;;1.65;1.40;;;7.10;99.90;;;;;;4945907;29;20194;-84
2023/12/21 16:42:08;;;;;;;1.33;1.23;;;7.20;99.90;;;;;;4974225;28;20051;-84